sensor_id;sensor_type;location;lat;lon;timestamp;pressure;altitude;pressure_sealevel;temperature;humidity
10460;BME280;54412;51.206;6.888;2022-12-29T00:01:37;99658.53;;;11.05;86.74
10460;BME280;54412;51.206;6.888;2022-12-29T00:04:04;99654.28;;;11.03;87.24
10460;BME280;54412;51.206;6.888;2022-12-29T00:06:30;99654.94;;;11.06;87.49
10460;BME280;54412;51.206;6.888;2022-12-29T00:08:56;99645.09;;;10.96;88.04
10460;BME280;54412;51.206;6.888;2022-12-29T00:11:26;99631.84;;;10.97;87.76
10460;BME280;54412;51.206;6.888;2022-12-29T00:13:53;99639.56;;;11.13;87.36
10460;BME280;54412;51.206;6.888;2022-12-29T00:16:41;99621.59;;;11.05;87.33
10460;BME280;54412;51.206;6.888;2022-12-29T00:19:07;99628.88;;;11.02;88.00
10460;BME280;54412;51.206;6.888;2022-12-29T00:21:52;99618.63;;;10.97;88.18
10460;BME280;54412;51.206;6.888;2022-12-29T00:24:47;99605.66;;;11.07;88.24
10460;BME280;54412;51.206;6.888;2022-12-29T00:27:32;99623.25;;;11.06;88.13
10460;BME280;54412;51.206;6.888;2022-12-29T00:30:22;99610.06;;;10.94;88.63
10460;BME280;54412;51.206;6.888;2022-12-29T00:33:19;99624.44;;;11.02;88.70
10460;BME280;54412;51.206;6.888;2022-12-29T00:38:53;99599.97;;;11.00;89.13
10460;BME280;54412;51.206;6.888;2022-12-29T00:41:37;99589.50;;;10.99;89.08
10460;BME280;54412;51.206;6.888;2022-12-29T00:44:22;99612.31;;;11.12;88.60
10460;BME280;54412;51.206;6.888;2022-12-29T00:46:47;99603.22;;;11.04;88.71
10460;BME280;54412;51.206;6.888;2022-12-29T00:49:14;99604.50;;;11.11;88.84
10460;BME280;54412;51.206;6.888;2022-12-29T00:52:10;99593.31;;;11.07;88.93
10460;BME280;54412;51.206;6.888;2022-12-29T00:54:39;99600.25;;;11.21;88.82
10460;BME280;54412;51.206;6.888;2022-12-29T00:57:07;99586.88;;;11.11;88.30
10460;BME280;54412;51.206;6.888;2022-12-29T00:59:39;99589.41;;;11.13;88.42
10460;BME280;54412;51.206;6.888;2022-12-29T01:02:05;99580.63;;;11.25;88.33
10460;BME280;54412;51.206;6.888;2022-12-29T01:04:32;99585.28;;;11.21;88.29
10460;BME280;54412;51.206;6.888;2022-12-29T01:06:57;99574.72;;;11.34;87.80
10460;BME280;54412;51.206;6.888;2022-12-29T01:09:23;99574.94;;;11.31;87.59
10460;BME280;54412;51.206;6.888;2022-12-29T01:12:09;99582.13;;;11.29;87.66
10460;BME280;54412;51.206;6.888;2022-12-29T01:14:36;99585.28;;;11.21;87.74
10460;BME280;54412;51.206;6.888;2022-12-29T01:17:02;99586.03;;;11.23;87.63
10460;BME280;54412;51.206;6.888;2022-12-29T01:19:28;99591.72;;;11.30;87.42
10460;BME280;54412;51.206;6.888;2022-12-29T01:21:53;99601.00;;;11.35;86.62
10460;BME280;54412;51.206;6.888;2022-12-29T01:24:20;99602.81;;;11.35;87.07
10460;BME280;54412;51.206;6.888;2022-12-29T01:26:47;99603.97;;;11.31;86.87
10460;BME280;54412;51.206;6.888;2022-12-29T01:29:14;99604.28;;;11.39;86.95
10460;BME280;54412;51.206;6.888;2022-12-29T01:31:40;99601.22;;;11.45;87.02
10460;BME280;54412;51.206;6.888;2022-12-29T01:34:06;99602.81;;;11.47;87.11
10460;BME280;54412;51.206;6.888;2022-12-29T01:36:32;99597.94;;;11.54;87.03
10460;BME280;54412;51.206;6.888;2022-12-29T01:38:57;99601.31;;;11.56;86.93
10460;BME280;54412;51.206;6.888;2022-12-29T01:41:23;99583.78;;;11.55;86.47
10460;BME280;54412;51.206;6.888;2022-12-29T01:43:54;99583.06;;;11.66;85.90
10460;BME280;54412;51.206;6.888;2022-12-29T01:48:55;99589.38;;;11.63;84.00
10460;BME280;54412;51.206;6.888;2022-12-29T01:51:25;99577.44;;;11.70;82.99
10460;BME280;54412;51.206;6.888;2022-12-29T01:53:58;99574.47;;;11.62;82.11
10460;BME280;54412;51.206;6.888;2022-12-29T01:56:26;99572.88;;;11.85;81.34
10460;BME280;54412;51.206;6.888;2022-12-29T01:59:02;99559.16;;;11.80;80.79
10460;BME280;54412;51.206;6.888;2022-12-29T02:01:30;99554.78;;;11.91;79.71
10460;BME280;54412;51.206;6.888;2022-12-29T02:03:56;99545.91;;;11.92;79.11
10460;BME280;54412;51.206;6.888;2022-12-29T02:06:29;99557.22;;;11.94;78.89
10460;BME280;54412;51.206;6.888;2022-12-29T02:08:57;99558.88;;;11.95;78.74
10460;BME280;54412;51.206;6.888;2022-12-29T02:11:28;99548.44;;;11.94;77.72
10460;BME280;54412;51.206;6.888;2022-12-29T02:13:54;99555.81;;;12.01;77.16
10460;BME280;54412;51.206;6.888;2022-12-29T02:23:36;99555.94;;;12.00;76.47
10460;BME280;54412;51.206;6.888;2022-12-29T02:42:56;99527.25;;;12.06;73.62
10460;BME280;54412;51.206;6.888;2022-12-29T02:48:35;99520.31;;;12.16;73.10
10460;BME280;54412;51.206;6.888;2022-12-29T02:51:45;99518.28;;;12.20;72.38
10460;BME280;54412;51.206;6.888;2022-12-29T02:54:13;99521.91;;;12.19;73.19
10460;BME280;54412;51.206;6.888;2022-12-29T02:57:00;99520.09;;;12.19;72.73
10460;BME280;54412;51.206;6.888;2022-12-29T02:59:25;99513.97;;;12.19;72.74
10460;BME280;54412;51.206;6.888;2022-12-29T03:05:19;99521.66;;;12.22;72.17
10460;BME280;54412;51.206;6.888;2022-12-29T03:08:38;99504.34;;;12.18;72.69
10460;BME280;54412;51.206;6.888;2022-12-29T03:11:13;99493.94;;;12.27;72.39
10460;BME280;54412;51.206;6.888;2022-12-29T03:14:16;99486.25;;;12.24;73.13
10460;BME280;54412;51.206;6.888;2022-12-29T03:17:11;99489.00;;;12.23;73.34
10460;BME280;54412;51.206;6.888;2022-12-29T03:19:47;99482.38;;;12.17;73.84
10460;BME280;54412;51.206;6.888;2022-12-29T03:22:22;99494.34;;;12.34;73.19
10460;BME280;54412;51.206;6.888;2022-12-29T03:27:47;99476.16;;;12.29;73.39
10460;BME280;54412;51.206;6.888;2022-12-29T03:30:14;99488.75;;;12.26;73.23
10460;BME280;54412;51.206;6.888;2022-12-29T03:33:12;99481.72;;;12.37;72.30
10460;BME280;54412;51.206;6.888;2022-12-29T03:35:42;99485.88;;;12.29;73.38
10460;BME280;54412;51.206;6.888;2022-12-29T03:38:37;99484.44;;;12.25;73.52
10460;BME280;54412;51.206;6.888;2022-12-29T03:41:11;99472.94;;;12.37;72.63
10460;BME280;54412;51.206;6.888;2022-12-29T03:43:37;99455.03;;;12.40;72.44
10460;BME280;54412;51.206;6.888;2022-12-29T03:46:03;99470.06;;;12.40;72.04
10460;BME280;54412;51.206;6.888;2022-12-29T03:48:29;99469.94;;;12.41;72.01
10460;BME280;54412;51.206;6.888;2022-12-29T03:50:54;99470.13;;;12.27;73.00
10460;BME280;54412;51.206;6.888;2022-12-29T03:53:20;99475.91;;;12.32;72.67
10460;BME280;54412;51.206;6.888;2022-12-29T03:55:45;99473.38;;;12.31;72.99
10460;BME280;54412;51.206;6.888;2022-12-29T03:58:11;99459.59;;;12.38;72.27
10460;BME280;54412;51.206;6.888;2022-12-29T04:00:37;99457.03;;;12.26;73.12
10460;BME280;54412;51.206;6.888;2022-12-29T04:03:02;99455.38;;;12.25;72.84
10460;BME280;54412;51.206;6.888;2022-12-29T04:05:28;99449.09;;;12.26;73.06
10460;BME280;54412;51.206;6.888;2022-12-29T04:07:54;99453.78;;;12.22;72.93
10460;BME280;54412;51.206;6.888;2022-12-29T04:10:19;99435.78;;;12.27;72.82
10460;BME280;54412;51.206;6.888;2022-12-29T04:12:45;99431.69;;;12.34;72.89
10460;BME280;54412;51.206;6.888;2022-12-29T04:15:12;99435.25;;;12.11;74.03
10460;BME280;54412;51.206;6.888;2022-12-29T04:17:38;99443.91;;;12.13;73.92
10460;BME280;54412;51.206;6.888;2022-12-29T04:20:04;99438.63;;;12.13;74.14
10460;BME280;54412;51.206;6.888;2022-12-29T04:22:49;99442.84;;;12.16;74.59
10460;BME280;54412;51.206;6.888;2022-12-29T04:25:15;99451.75;;;12.26;74.15
10460;BME280;54412;51.206;6.888;2022-12-29T04:27:40;99446.19;;;12.18;74.50
10460;BME280;54412;51.206;6.888;2022-12-29T04:30:07;99456.44;;;12.22;73.81
10460;BME280;54412;51.206;6.888;2022-12-29T04:32:33;99459.41;;;12.18;74.62
10460;BME280;54412;51.206;6.888;2022-12-29T04:34:58;99463.81;;;12.41;73.32
10460;BME280;54412;51.206;6.888;2022-12-29T04:37:24;99456.72;;;12.30;73.82
10460;BME280;54412;51.206;6.888;2022-12-29T04:39:50;99464.88;;;12.38;73.15
10460;BME280;54412;51.206;6.888;2022-12-29T04:42:15;99456.72;;;12.30;72.71
10460;BME280;54412;51.206;6.888;2022-12-29T04:44:41;99464.53;;;12.32;72.17
10460;BME280;54412;51.206;6.888;2022-12-29T04:47:06;99458.13;;;12.34;72.06
10460;BME280;54412;51.206;6.888;2022-12-29T04:49:32;99462.50;;;12.35;72.00
10460;BME280;54412;51.206;6.888;2022-12-29T04:51:58;99463.69;;;12.42;71.00
10460;BME280;54412;51.206;6.888;2022-12-29T04:54:23;99471.84;;;12.39;70.83
10460;BME280;54412;51.206;6.888;2022-12-29T04:56:49;99470.53;;;12.45;70.61
10460;BME280;54412;51.206;6.888;2022-12-29T04:59:15;99469.34;;;12.49;69.84
10460;BME280;54412;51.206;6.888;2022-12-29T05:01:40;99462.88;;;12.53;69.48
10460;BME280;54412;51.206;6.888;2022-12-29T05:04:07;99474.78;;;12.47;69.77
10460;BME280;54412;51.206;6.888;2022-12-29T05:06:33;99469.97;;;12.52;69.59
10460;BME280;54412;51.206;6.888;2022-12-29T05:08:59;99473.59;;;12.51;69.09
10460;BME280;54412;51.206;6.888;2022-12-29T05:11:24;99471.44;;;12.56;68.97
10460;BME280;54412;51.206;6.888;2022-12-29T05:13:50;99469.50;;;12.58;68.86
10460;BME280;54412;51.206;6.888;2022-12-29T05:16:15;99476.13;;;12.64;69.07
10460;BME280;54412;51.206;6.888;2022-12-29T05:18:41;99466.75;;;12.60;68.83
10460;BME280;54412;51.206;6.888;2022-12-29T05:21:07;99484.06;;;12.64;68.81
10460;BME280;54412;51.206;6.888;2022-12-29T05:23:32;99475.16;;;12.65;68.81
10460;BME280;54412;51.206;6.888;2022-12-29T05:25:58;99481.28;;;12.54;69.33
10460;BME280;54412;51.206;6.888;2022-12-29T05:28:24;99502.81;;;12.61;68.56
10460;BME280;54412;51.206;6.888;2022-12-29T05:30:50;99496.69;;;12.60;68.95
10460;BME280;54412;51.206;6.888;2022-12-29T05:33:17;99491.16;;;12.63;68.50
10460;BME280;54412;51.206;6.888;2022-12-29T05:35:43;99490.56;;;12.60;69.01
10460;BME280;54412;51.206;6.888;2022-12-29T05:38:09;99485.63;;;12.67;68.69
10460;BME280;54412;51.206;6.888;2022-12-29T05:40:35;99480.34;;;12.67;68.93
10460;BME280;54412;51.206;6.888;2022-12-29T05:43:01;99484.94;;;12.65;68.41
10460;BME280;54412;51.206;6.888;2022-12-29T05:45:26;99486.81;;;12.51;68.86
10460;BME280;54412;51.206;6.888;2022-12-29T05:47:52;99503.16;;;12.56;68.79
10460;BME280;54412;51.206;6.888;2022-12-29T05:50:18;99494.94;;;12.48;68.64
10460;BME280;54412;51.206;6.888;2022-12-29T05:52:43;99495.22;;;12.56;68.64
10460;BME280;54412;51.206;6.888;2022-12-29T05:55:09;99480.91;;;12.48;68.36
10460;BME280;54412;51.206;6.888;2022-12-29T05:57:35;99486.41;;;12.45;68.42
10460;BME280;54412;51.206;6.888;2022-12-29T06:00:03;99491.69;;;12.45;68.14
10460;BME280;54412;51.206;6.888;2022-12-29T06:02:29;99498.94;;;12.43;68.07
10460;BME280;54412;51.206;6.888;2022-12-29T06:04:54;99498.69;;;12.46;67.95
10460;BME280;54412;51.206;6.888;2022-12-29T06:07:20;99511.19;;;12.44;68.38
10460;BME280;54412;51.206;6.888;2022-12-29T06:09:45;99520.69;;;12.46;68.28
10460;BME280;54412;51.206;6.888;2022-12-29T06:12:11;99500.59;;;12.44;68.43
10460;BME280;54412;51.206;6.888;2022-12-29T06:14:37;99514.44;;;12.47;68.19
10460;BME280;54412;51.206;6.888;2022-12-29T06:17:02;99527.28;;;12.41;68.38
10460;BME280;54412;51.206;6.888;2022-12-29T06:19:28;99508.16;;;12.37;68.23
10460;BME280;54412;51.206;6.888;2022-12-29T06:21:54;99500.69;;;12.31;68.66
10460;BME280;54412;51.206;6.888;2022-12-29T06:24:20;99506.75;;;12.44;68.64
10460;BME280;54412;51.206;6.888;2022-12-29T06:26:46;99523.84;;;12.51;68.26
10460;BME280;54412;51.206;6.888;2022-12-29T06:29:12;99516.97;;;12.49;67.93
10460;BME280;54412;51.206;6.888;2022-12-29T06:31:43;99526.31;;;12.42;68.61
10460;BME280;54412;51.206;6.888;2022-12-29T06:34:11;99528.97;;;12.42;68.21
10460;BME280;54412;51.206;6.888;2022-12-29T06:36:38;99540.72;;;12.38;68.24
10460;BME280;54412;51.206;6.888;2022-12-29T06:39:04;99544.94;;;12.40;67.90
10460;BME280;54412;51.206;6.888;2022-12-29T06:41:30;99551.91;;;12.41;67.50
10460;BME280;54412;51.206;6.888;2022-12-29T06:43:55;99557.06;;;12.32;67.45
10460;BME280;54412;51.206;6.888;2022-12-29T06:46:21;99542.38;;;12.28;67.60
10460;BME280;54412;51.206;6.888;2022-12-29T06:48:46;99555.59;;;12.28;67.52
10460;BME280;54412;51.206;6.888;2022-12-29T06:51:12;99551.88;;;12.30;67.08
10460;BME280;54412;51.206;6.888;2022-12-29T06:53:38;99555.34;;;12.31;66.97
10460;BME280;54412;51.206;6.888;2022-12-29T06:56:04;99566.03;;;12.29;66.88
10460;BME280;54412;51.206;6.888;2022-12-29T06:58:30;99554.19;;;12.35;66.51
10460;BME280;54412;51.206;6.888;2022-12-29T07:00:55;99562.47;;;12.30;66.90
10460;BME280;54412;51.206;6.888;2022-12-29T07:03:21;99553.78;;;12.28;66.40
10460;BME280;54412;51.206;6.888;2022-12-29T07:05:47;99569.66;;;12.28;66.27
10460;BME280;54412;51.206;6.888;2022-12-29T07:08:12;99554.97;;;12.24;66.42
10460;BME280;54412;51.206;6.888;2022-12-29T07:10:38;99553.19;;;12.36;66.66
10460;BME280;54412;51.206;6.888;2022-12-29T07:13:04;99565.75;;;12.45;66.48
10460;BME280;54412;51.206;6.888;2022-12-29T07:15:29;99565.06;;;12.54;65.69
10460;BME280;54412;51.206;6.888;2022-12-29T07:17:55;99567.88;;;12.40;66.03
10460;BME280;54412;51.206;6.888;2022-12-29T07:20:21;99572.25;;;12.52;66.72
10460;BME280;54412;51.206;6.888;2022-12-29T07:22:46;99573.41;;;12.37;66.73
10460;BME280;54412;51.206;6.888;2022-12-29T07:25:13;99573.59;;;12.23;67.16
10460;BME280;54412;51.206;6.888;2022-12-29T07:27:39;99578.66;;;12.26;67.26
10460;BME280;54412;51.206;6.888;2022-12-29T07:30:05;99574.88;;;12.41;66.77
10460;BME280;54412;51.206;6.888;2022-12-29T07:32:34;99579.09;;;12.20;66.46
10460;BME280;54412;51.206;6.888;2022-12-29T07:35:00;99593.50;;;12.16;67.02
10460;BME280;54412;51.206;6.888;2022-12-29T07:37:25;99604.16;;;12.14;67.60
10460;BME280;54412;51.206;6.888;2022-12-29T07:39:51;99605.44;;;12.21;66.54
10460;BME280;54412;51.206;6.888;2022-12-29T07:42:17;99601.38;;;12.28;66.86
10460;BME280;54412;51.206;6.888;2022-12-29T07:44:42;99610.13;;;12.29;66.54
10460;BME280;54412;51.206;6.888;2022-12-29T07:47:08;99622.13;;;12.22;66.59
10460;BME280;54412;51.206;6.888;2022-12-29T07:49:33;99627.34;;;12.34;65.94
10460;BME280;54412;51.206;6.888;2022-12-29T07:51:59;99629.63;;;12.28;66.36
10460;BME280;54412;51.206;6.888;2022-12-29T07:54:25;99628.81;;;12.38;66.68
10460;BME280;54412;51.206;6.888;2022-12-29T07:56:51;99639.16;;;12.41;66.53
10460;BME280;54412;51.206;6.888;2022-12-29T07:59:17;99634.34;;;12.35;66.51
10460;BME280;54412;51.206;6.888;2022-12-29T08:01:43;99648.31;;;12.37;65.81
10460;BME280;54412;51.206;6.888;2022-12-29T08:04:09;99637.53;;;12.28;65.42
10460;BME280;54412;51.206;6.888;2022-12-29T08:06:34;99629.25;;;12.32;65.60
10460;BME280;54412;51.206;6.888;2022-12-29T08:09:00;99633.16;;;12.39;65.84
10460;BME280;54412;51.206;6.888;2022-12-29T08:11:27;99630.78;;;12.24;65.13
10460;BME280;54412;51.206;6.888;2022-12-29T08:13:53;99636.41;;;12.19;64.57
10460;BME280;54412;51.206;6.888;2022-12-29T08:16:18;99642.00;;;12.15;65.12
10460;BME280;54412;51.206;6.888;2022-12-29T08:18:44;99639.25;;;12.16;64.97
10460;BME280;54412;51.206;6.888;2022-12-29T08:21:10;99646.66;;;12.24;64.54
10460;BME280;54412;51.206;6.888;2022-12-29T08:23:36;99638.81;;;12.22;64.47
10460;BME280;54412;51.206;6.888;2022-12-29T08:26:04;99643.88;;;12.25;64.27
10460;BME280;54412;51.206;6.888;2022-12-29T08:28:31;99640.00;;;12.18;64.34
10460;BME280;54412;51.206;6.888;2022-12-29T08:30:59;99647.00;;;12.19;64.32
10460;BME280;54412;51.206;6.888;2022-12-29T08:33:26;99642.84;;;12.28;64.10
10460;BME280;54412;51.206;6.888;2022-12-29T08:35:58;99629.31;;;12.20;64.32
10460;BME280;54412;51.206;6.888;2022-12-29T08:38:24;99648.38;;;12.12;64.25
10460;BME280;54412;51.206;6.888;2022-12-29T08:40:51;99636.31;;;12.21;64.21
10460;BME280;54412;51.206;6.888;2022-12-29T08:43:18;99661.88;;;12.20;64.31
10460;BME280;54412;51.206;6.888;2022-12-29T08:45:43;99668.88;;;12.21;66.41
10460;BME280;54412;51.206;6.888;2022-12-29T08:48:09;99686.66;;;12.07;68.83
10460;BME280;54412;51.206;6.888;2022-12-29T08:50:35;99667.66;;;11.77;72.25
10460;BME280;54412;51.206;6.888;2022-12-29T08:53:00;99670.91;;;11.42;73.94
10460;BME280;54412;51.206;6.888;2022-12-29T08:55:26;99663.84;;;11.43;74.21
10460;BME280;54412;51.206;6.888;2022-12-29T08:57:52;99672.09;;;11.26;74.20
10460;BME280;54412;51.206;6.888;2022-12-29T09:00:18;99679.03;;;11.14;75.55
10460;BME280;54412;51.206;6.888;2022-12-29T09:02:44;99681.06;;;11.36;75.29
10460;BME280;54412;51.206;6.888;2022-12-29T09:05:09;99671.34;;;11.49;73.52
10460;BME280;54412;51.206;6.888;2022-12-29T09:07:35;99676.00;;;11.58;72.13
10460;BME280;54412;51.206;6.888;2022-12-29T09:10:02;99672.41;;;11.59;72.18
10460;BME280;54412;51.206;6.888;2022-12-29T09:12:27;99679.94;;;11.65;72.07
10460;BME280;54412;51.206;6.888;2022-12-29T09:14:53;99684.97;;;11.93;71.70
10460;BME280;54412;51.206;6.888;2022-12-29T09:17:19;99682.13;;;11.84;70.96
10460;BME280;54412;51.206;6.888;2022-12-29T09:20:04;99684.84;;;12.07;70.74
10460;BME280;54412;51.206;6.888;2022-12-29T09:22:30;99697.84;;;12.23;69.42
10460;BME280;54412;51.206;6.888;2022-12-29T09:24:55;99699.63;;;12.22;68.90
10460;BME280;54412;51.206;6.888;2022-12-29T09:27:21;99716.22;;;12.24;66.54
10460;BME280;54412;51.206;6.888;2022-12-29T09:29:46;99712.44;;;12.16;66.58
10460;BME280;54412;51.206;6.888;2022-12-29T09:32:12;99721.31;;;12.15;67.14
10460;BME280;54412;51.206;6.888;2022-12-29T09:34:38;99722.22;;;12.39;66.93
10460;BME280;54412;51.206;6.888;2022-12-29T09:37:04;99736.53;;;12.24;65.79
10460;BME280;54412;51.206;6.888;2022-12-29T09:39:30;99730.31;;;12.25;65.55
10460;BME280;54412;51.206;6.888;2022-12-29T09:42:16;99735.94;;;12.56;64.96
10460;BME280;54412;51.206;6.888;2022-12-29T09:45:21;99732.78;;;12.51;64.60
10460;BME280;54412;51.206;6.888;2022-12-29T09:47:51;99730.97;;;12.39;63.67
10460;BME280;54412;51.206;6.888;2022-12-29T09:50:33;99729.34;;;12.13;63.61
10460;BME280;54412;51.206;6.888;2022-12-29T09:53:27;99737.69;;;12.20;63.62
10460;BME280;54412;51.206;6.888;2022-12-29T09:55:58;99732.91;;;12.37;63.36
10460;BME280;54412;51.206;6.888;2022-12-29T09:58:40;99730.34;;;12.36;62.48
10460;BME280;54412;51.206;6.888;2022-12-29T10:01:32;99743.28;;;12.40;61.68
10460;BME280;54412;51.206;6.888;2022-12-29T10:04:00;99744.53;;;12.47;61.12
10460;BME280;54412;51.206;6.888;2022-12-29T10:06:46;99743.97;;;12.55;60.25
10460;BME280;54412;51.206;6.888;2022-12-29T10:09:34;99734.09;;;12.93;58.49
10460;BME280;54412;51.206;6.888;2022-12-29T10:18:36;99730.47;;;12.71;58.28
10460;BME280;54412;51.206;6.888;2022-12-29T10:21:12;99733.13;;;12.71;58.53
10460;BME280;54412;51.206;6.888;2022-12-29T10:23:50;99731.41;;;12.82;58.47
10460;BME280;54412;51.206;6.888;2022-12-29T10:26:27;99728.19;;;12.66;57.45
10460;BME280;54412;51.206;6.888;2022-12-29T10:29:06;99739.75;;;12.76;58.37
10460;BME280;54412;51.206;6.888;2022-12-29T10:31:40;99739.34;;;12.82;57.72
10460;BME280;54412;51.206;6.888;2022-12-29T10:37:01;99733.53;;;12.77;58.84
10460;BME280;54412;51.206;6.888;2022-12-29T10:39:40;99761.56;;;12.80;58.56
10460;BME280;54412;51.206;6.888;2022-12-29T10:42:18;99745.91;;;12.77;58.30
10460;BME280;54412;51.206;6.888;2022-12-29T10:44:46;99752.25;;;12.74;58.17
10460;BME280;54412;51.206;6.888;2022-12-29T10:47:20;99758.53;;;12.73;58.03
10460;BME280;54412;51.206;6.888;2022-12-29T10:49:48;99759.03;;;13.02;57.45
10460;BME280;54412;51.206;6.888;2022-12-29T10:52:17;99750.81;;;13.17;56.89
10460;BME280;54412;51.206;6.888;2022-12-29T10:54:55;99762.16;;;13.19;57.02
10460;BME280;54412;51.206;6.888;2022-12-29T10:57:32;99760.75;;;13.03;57.71
10460;BME280;54412;51.206;6.888;2022-12-29T10:59:59;99763.22;;;12.93;57.50
10460;BME280;54412;51.206;6.888;2022-12-29T11:05:46;99764.94;;;12.82;57.99
10460;BME280;54412;51.206;6.888;2022-12-29T11:08:21;99778.69;;;12.87;58.24
10460;BME280;54412;51.206;6.888;2022-12-29T11:11:02;99772.66;;;12.85;58.78
10460;BME280;54412;51.206;6.888;2022-12-29T11:13:33;99772.28;;;12.66;58.68
10460;BME280;54412;51.206;6.888;2022-12-29T11:15:59;99778.56;;;12.65;58.24
10460;BME280;54412;51.206;6.888;2022-12-29T11:18:36;99787.66;;;12.60;58.13
10460;BME280;54412;51.206;6.888;2022-12-29T11:21:07;99785.63;;;12.64;58.42
10460;BME280;54412;51.206;6.888;2022-12-29T11:24:24;99796.34;;;12.63;57.99
10460;BME280;54412;51.206;6.888;2022-12-29T11:26:53;99793.78;;;12.61;57.96
10460;BME280;54412;51.206;6.888;2022-12-29T11:29:26;99807.56;;;12.53;58.23
10460;BME280;54412;51.206;6.888;2022-12-29T11:31:58;99811.06;;;12.41;58.50
10460;BME280;54412;51.206;6.888;2022-12-29T11:34:31;99808.34;;;12.43;58.43
10460;BME280;54412;51.206;6.888;2022-12-29T11:37:03;99807.56;;;12.53;58.66
10460;BME280;54412;51.206;6.888;2022-12-29T11:40:02;99807.13;;;12.47;58.57
10460;BME280;54412;51.206;6.888;2022-12-29T11:42:42;99834.69;;;12.32;58.31
10460;BME280;54412;51.206;6.888;2022-12-29T11:47:56;99837.31;;;12.32;58.33
10460;BME280;54412;51.206;6.888;2022-12-29T11:50:28;99814.25;;;12.46;58.20
10460;BME280;54412;51.206;6.888;2022-12-29T11:53:21;99816.47;;;12.40;58.42
10460;BME280;54412;51.206;6.888;2022-12-29T11:56:14;99844.63;;;12.28;58.38
10460;BME280;54412;51.206;6.888;2022-12-29T11:58:41;99831.59;;;12.25;58.44
10460;BME280;54412;51.206;6.888;2022-12-29T12:01:18;99836.25;;;12.22;58.19
10460;BME280;54412;51.206;6.888;2022-12-29T12:04:13;99839.97;;;12.19;58.10
10460;BME280;54412;51.206;6.888;2022-12-29T12:06:49;99838.38;;;12.17;58.35
10460;BME280;54412;51.206;6.888;2022-12-29T12:09:35;99828.94;;;12.25;58.48
10460;BME280;54412;51.206;6.888;2022-12-29T12:12:04;99842.72;;;12.30;58.17
10460;BME280;54412;51.206;6.888;2022-12-29T12:14:40;99852.09;;;12.09;58.14
10460;BME280;54412;51.206;6.888;2022-12-29T12:17:23;99855.81;;;12.19;58.37
10460;BME280;54412;51.206;6.888;2022-12-29T12:20:16;99850.53;;;12.07;58.52
10460;BME280;54412;51.206;6.888;2022-12-29T12:22:58;99847.88;;;12.07;58.38
10460;BME280;54412;51.206;6.888;2022-12-29T12:25:37;99840.03;;;12.05;58.38
10460;BME280;54412;51.206;6.888;2022-12-29T12:34:06;99857.81;;;12.03;58.78
10460;BME280;54412;51.206;6.888;2022-12-29T12:36:58;99848.81;;;12.06;58.69
10460;BME280;54412;51.206;6.888;2022-12-29T12:55:00;99862.78;;;11.95;58.23
10460;BME280;54412;51.206;6.888;2022-12-29T13:00:20;99860.66;;;12.00;57.72
10460;BME280;54412;51.206;6.888;2022-12-29T13:03:10;99869.78;;;12.09;58.00
10460;BME280;54412;51.206;6.888;2022-12-29T13:06:28;99865.03;;;12.14;58.05
10460;BME280;54412;51.206;6.888;2022-12-29T13:09:15;99871.69;;;12.07;57.76
10460;BME280;54412;51.206;6.888;2022-12-29T13:11:52;99877.28;;;12.15;58.03
10460;BME280;54412;51.206;6.888;2022-12-29T13:14:42;99871.03;;;12.03;58.21
10460;BME280;54412;51.206;6.888;2022-12-29T13:26:16;99866.06;;;12.24;58.07
10460;BME280;54412;51.206;6.888;2022-12-29T13:29:16;99880.53;;;12.06;58.61
10460;BME280;54412;51.206;6.888;2022-12-29T13:35:12;99869.56;;;12.12;58.46
10460;BME280;54412;51.206;6.888;2022-12-29T13:37:52;99873.78;;;12.14;58.06
10460;BME280;54412;51.206;6.888;2022-12-29T13:40:25;99885.09;;;12.16;57.46
10460;BME280;54412;51.206;6.888;2022-12-29T13:42:55;99877.13;;;12.79;54.82
10460;BME280;54412;51.206;6.888;2022-12-29T13:45:26;99879.38;;;13.92;51.84
10460;BME280;54412;51.206;6.888;2022-12-29T13:48:09;99875.19;;;14.35;51.15
10460;BME280;54412;51.206;6.888;2022-12-29T13:50:40;99882.22;;;13.31;53.85
10460;BME280;54412;51.206;6.888;2022-12-29T13:53:15;99888.56;;;12.80;54.87
10460;BME280;54412;51.206;6.888;2022-12-29T13:56:18;99878.41;;;12.74;54.87
10460;BME280;54412;51.206;6.888;2022-12-29T13:59:18;99887.22;;;12.49;55.82
10460;BME280;54412;51.206;6.888;2022-12-29T14:04:27;99883.53;;;12.39;55.67
10460;BME280;54412;51.206;6.888;2022-12-29T14:07:12;99896.22;;;12.46;55.65
10460;BME280;54412;51.206;6.888;2022-12-29T14:09:47;99883.66;;;12.25;55.84
10460;BME280;54412;51.206;6.888;2022-12-29T14:12:28;99890.19;;;12.32;56.72
10460;BME280;54412;51.206;6.888;2022-12-29T14:15:22;99912.06;;;12.09;56.49
10460;BME280;54412;51.206;6.888;2022-12-29T14:18:03;99901.69;;;12.18;57.03
10460;BME280;54412;51.206;6.888;2022-12-29T14:20:30;99896.00;;;12.24;56.38
10460;BME280;54412;51.206;6.888;2022-12-29T14:23:16;99910.25;;;12.09;56.40
10460;BME280;54412;51.206;6.888;2022-12-29T14:26:14;99908.97;;;12.02;57.17
10460;BME280;54412;51.206;6.888;2022-12-29T14:28:48;99916.25;;;11.99;57.40
10460;BME280;54412;51.206;6.888;2022-12-29T14:33:41;99921.91;;;11.80;57.74
10460;BME280;54412;51.206;6.888;2022-12-29T14:36:38;99920.13;;;11.81;57.99
10460;BME280;54412;51.206;6.888;2022-12-29T14:39:39;99927.13;;;11.82;57.71
10460;BME280;54412;51.206;6.888;2022-12-29T14:45:02;99932.59;;;11.79;57.91
10460;BME280;54412;51.206;6.888;2022-12-29T14:50:04;99937.69;;;11.82;57.99
10460;BME280;54412;51.206;6.888;2022-12-29T14:52:31;99928.25;;;11.78;58.26
10460;BME280;54412;51.206;6.888;2022-12-29T14:58:01;99927.81;;;11.71;58.54
10460;BME280;54412;51.206;6.888;2022-12-29T15:00:33;99924.50;;;11.68;58.74
10460;BME280;54412;51.206;6.888;2022-12-29T15:03:19;99936.03;;;11.67;59.20
10460;BME280;54412;51.206;6.888;2022-12-29T15:05:58;99935.06;;;11.68;58.79
10460;BME280;54412;51.206;6.888;2022-12-29T15:08:28;99936.22;;;11.64;58.98
10460;BME280;54412;51.206;6.888;2022-12-29T15:11:12;99938.94;;;11.62;59.13